createdAt,value
2018-07-17T00:00:29.831Z,26.10
2018-07-17T00:01:29.696Z,28.40
2018-07-17T00:02:29.690Z,27.20
2018-07-17T00:03:29.625Z,27.70
2018-07-17T00:04:29.597Z,27.90
2018-07-17T00:05:29.565Z,28.30
2018-07-17T00:06:29.523Z,26.30
2018-07-17T00:07:29.491Z,25.40
2018-07-17T00:08:29.451Z,25.10
2018-07-17T00:09:29.461Z,25.60
2018-07-17T00:10:29.410Z,25.90
2018-07-17T00:11:29.343Z,24.90
2018-07-17T00:12:29.314Z,25.30
2018-07-17T00:13:29.267Z,25.10
2018-07-17T00:14:29.229Z,24.60
2018-07-17T00:15:29.187Z,24.80
2018-07-17T00:16:29.270Z,25.40
2018-07-17T00:17:29.120Z,26.40
2018-07-17T00:18:29.084Z,25.30
2018-07-17T00:19:29.047Z,26.80
2018-07-17T00:20:29.008Z,26.30
2018-07-17T00:21:29.012Z,25.80
2018-07-17T00:22:28.998Z,25.70
2018-07-17T00:23:28.912Z,25.10
2018-07-17T00:24:28.888Z,24.10
2018-07-17T00:25:28.843Z,25.90
2018-07-17T00:26:28.837Z,26.60
2018-07-17T00:27:28.771Z,27.80
2018-07-17T00:28:28.747Z,28.10
2018-07-17T00:29:28.704Z,28.80
2018-07-17T00:30:28.651Z,30.50
2018-07-17T00:31:28.747Z,29.40
2018-07-17T00:32:28.598Z,28.50
2018-07-17T00:33:28.624Z,27.90
2018-07-17T00:34:28.528Z,26.10
2018-07-17T00:35:28.509Z,27.40
2018-07-17T00:36:28.455Z,27.40
2018-07-17T00:37:28.394Z,28.30
2018-07-17T00:38:28.360Z,29.00
2018-07-17T00:39:28.315Z,29.30
2018-07-17T00:40:28.285Z,29.10
2018-07-17T00:41:28.250Z,28.30
2018-07-17T00:42:28.279Z,28.80
2018-07-17T00:43:28.195Z,27.70
2018-07-17T00:44:28.148Z,28.80
2018-07-17T00:45:28.111Z,27.80
2018-07-17T00:46:28.066Z,28.60
2018-07-17T00:47:28.041Z,28.30
2018-07-17T00:48:27.989Z,28.60
2018-07-17T00:49:27.973Z,28.70
2018-07-17T00:50:27.931Z,26.60
2018-07-17T00:51:27.894Z,26.20
2018-07-17T00:52:27.850Z,27.70
2018-07-17T00:53:27.813Z,28.30
2018-07-17T00:54:27.776Z,29.00
2018-07-17T00:55:27.734Z,29.80
2018-07-17T00:56:27.706Z,30.60
2018-07-17T00:57:27.688Z,29.50
2018-07-17T00:58:27.634Z,30.40
2018-07-17T00:59:27.615Z,30.40
2018-07-17T01:00:27.598Z,30.10
2018-07-17T01:01:27.518Z,30.80
2018-07-17T01:02:27.482Z,30.30
2018-07-17T01:03:27.449Z,30.20
2018-07-17T01:04:27.468Z,41.90
2018-07-17T01:07:00.333Z,31.80
2018-07-17T01:07:59.312Z,31.40
2018-07-17T01:09:53.181Z,31.60
2018-07-17T01:10:52.254Z,31.60
2018-07-17T01:12:45.707Z,35.90
2018-07-17T01:13:45.315Z,35.00
2018-07-17T01:15:39.184Z,32.80
2018-07-17T01:16:39.093Z,33.30
2018-07-17T01:18:31.692Z,33.20
2018-07-17T01:19:31.227Z,30.70
2018-07-17T01:21:25.175Z,29.80
2018-07-17T01:22:24.465Z,28.10
2018-07-17T01:24:17.864Z,26.40
2018-07-17T01:25:17.645Z,25.80
2018-07-17T01:27:10.648Z,30.00
2018-07-17T01:28:10.247Z,28.10
2018-07-17T01:30:05.545Z,30.80
2018-07-17T01:31:05.465Z,29.90
2018-07-17T01:32:58.084Z,29.80
2018-07-17T01:33:57.725Z,30.40
2018-07-17T01:35:51.145Z,30.00
2018-07-17T01:36:50.700Z,30.90
2018-07-17T01:38:43.881Z,30.30
2018-07-17T01:39:43.565Z,28.80
2018-07-17T01:41:36.982Z,27.80
2018-07-17T01:42:36.632Z,25.80
2018-07-17T01:44:29.909Z,34.60
2018-07-17T01:45:29.526Z,31.20
2018-07-17T01:47:24.959Z,34.10
2018-07-17T01:48:24.007Z,31.80
2018-07-17T01:50:17.391Z,32.20
2018-07-17T01:51:16.940Z,31.10
2018-07-17T01:53:10.398Z,35.30
2018-07-17T01:54:09.967Z,35.20
2018-07-17T01:56:03.292Z,34.00
2018-07-17T01:57:02.859Z,37.10
2018-07-17T01:58:56.284Z,47.70
2018-07-17T01:59:55.854Z,57.70
2018-07-17T02:02:48.756Z,36.10
2018-07-17T02:04:42.730Z,31.90
2018-07-17T02:05:41.665Z,37.10
2018-07-17T02:07:36.626Z,35.90
2018-07-17T02:08:36.205Z,34.60
2018-07-17T02:10:30.144Z,34.50
2018-07-17T02:11:29.208Z,32.60
2018-07-17T02:13:22.485Z,34.00
2018-07-17T02:14:22.030Z,33.90
2018-07-17T02:16:15.736Z,31.90
2018-07-17T02:17:15.241Z,29.40
2018-07-17T02:19:08.481Z,30.30
2018-07-17T02:20:08.780Z,31.80
2018-07-17T02:22:01.941Z,34.20
2018-07-17T02:23:01.169Z,33.20
2018-07-17T02:24:54.422Z,31.80
2018-07-17T02:25:53.948Z,37.70
2018-07-17T02:27:48.916Z,39.80
2018-07-17T02:28:48.590Z,35.90
2018-07-17T02:30:41.767Z,31.90
2018-07-17T02:31:41.460Z,33.30
2018-07-17T02:33:34.801Z,31.20
2018-07-17T02:34:35.089Z,31.90
2018-07-17T02:36:27.662Z,30.90
2018-07-17T02:37:27.310Z,31.40
2018-07-17T02:39:21.238Z,29.80
2018-07-17T02:40:20.802Z,29.30
2018-07-17T02:42:14.259Z,30.90
2018-07-17T02:43:13.799Z,30.30
2018-07-17T02:45:07.191Z,35.30
2018-07-17T02:46:06.869Z,38.40
2018-07-17T02:48:00.125Z,62.50
2018-07-17T02:49:00.479Z,36.20
2018-07-17T02:50:53.182Z,41.30
2018-07-17T02:51:52.735Z,38.80
2018-07-17T02:53:46.097Z,34.90
2018-07-17T02:54:45.592Z,43.70
2018-07-17T02:56:39.032Z,41.80
2018-07-17T02:57:39.339Z,49.30
2018-07-17T02:59:32.532Z,35.20
2018-07-17T03:00:32.179Z,33.60
2018-07-17T03:02:25.526Z,33.50
2018-07-17T03:03:25.179Z,33.00
2018-07-17T03:05:18.600Z,32.50
2018-07-17T03:06:18.195Z,32.40
2018-07-17T03:08:11.605Z,33.50
2018-07-17T03:09:11.015Z,33.10
2018-07-17T03:11:04.528Z,33.30
2018-07-17T03:12:04.081Z,32.90
2018-07-17T03:13:57.403Z,32.60
2018-07-17T03:14:57.084Z,33.90
2018-07-17T03:16:50.402Z,47.30
2018-07-17T03:17:49.934Z,41.80
2018-07-17T03:19:43.317Z,33.40
2018-07-17T03:20:42.924Z,33.50
2018-07-17T03:22:37.833Z,33.80
2018-07-17T03:23:37.558Z,32.80
2018-07-17T03:25:30.885Z,31.20
2018-07-17T03:26:30.373Z,28.80
2018-07-17T03:28:23.801Z,29.80
2018-07-17T03:29:23.417Z,34.30
2018-07-17T03:31:16.704Z,33.00
2018-07-17T03:32:16.251Z,33.00
2018-07-17T03:34:09.674Z,35.90
2018-07-17T03:35:09.344Z,45.30
2018-07-17T03:37:02.669Z,38.70
2018-07-17T03:38:02.242Z,35.40
2018-07-17T03:39:55.643Z,35.30
2018-07-17T03:40:55.519Z,35.40
2018-07-17T03:42:50.115Z,33.40
2018-07-17T03:43:49.636Z,37.10
2018-07-17T03:45:43.013Z,36.10
2018-07-17T03:46:42.648Z,35.10
2018-07-17T03:48:35.981Z,33.30
2018-07-17T03:49:35.567Z,33.70
2018-07-17T03:51:29.388Z,33.20
2018-07-17T03:52:28.484Z,33.90
2018-07-17T03:54:22.373Z,34.50
2018-07-17T03:55:21.486Z,35.10
2018-07-17T03:57:15.395Z,32.60
2018-07-17T03:58:14.389Z,32.30
2018-07-17T04:00:07.815Z,33.20
2018-07-17T04:01:07.432Z,33.40
2018-07-17T04:03:02.823Z,34.50
2018-07-17T04:04:02.085Z,35.30
2018-07-17T04:05:55.679Z,35.80
2018-07-17T04:06:54.887Z,35.60
2018-07-17T04:08:48.251Z,34.30
2018-07-17T04:09:47.932Z,35.00
2018-07-17T04:11:41.136Z,36.40
2018-07-17T04:12:40.730Z,36.60
2018-07-17T04:14:34.224Z,40.10
2018-07-17T04:15:33.711Z,39.70
2018-07-17T04:17:27.369Z,43.20
2018-07-17T04:18:26.872Z,46.70
2018-07-17T04:20:20.798Z,49.00
2018-07-17T04:21:20.410Z,42.60
2018-07-17T04:23:14.384Z,32.20
2018-07-17T04:24:14.765Z,29.70
2018-07-17T04:26:07.364Z,18.80
2018-07-17T04:27:07.265Z,16.50
2018-07-17T04:29:00.893Z,14.40
2018-07-17T04:30:00.892Z,14.60
2018-07-17T04:31:53.380Z,14.40
2018-07-17T04:32:52.985Z,14.00
2018-07-17T04:34:46.912Z,13.60
2018-07-17T04:35:46.649Z,13.10
2018-07-17T04:37:41.305Z,13.70
2018-07-17T04:38:41.320Z,13.60
2018-07-17T04:40:33.836Z,14.20
2018-07-17T04:41:33.439Z,13.50
2018-07-17T04:43:27.822Z,13.80
2018-07-17T04:44:26.447Z,13.00
2018-07-17T04:46:19.894Z,11.80
2018-07-17T04:47:19.460Z,12.00
2018-07-17T04:49:12.878Z,11.60
2018-07-17T04:50:12.481Z,11.30
2018-07-17T04:52:05.895Z,12.00
2018-07-17T04:53:05.298Z,11.70
2018-07-17T04:54:59.402Z,11.70
2018-07-17T04:55:58.505Z,10.80
2018-07-17T04:57:51.976Z,11.10
2018-07-17T04:58:52.370Z,11.00
2018-07-17T05:00:44.903Z,11.00
2018-07-17T05:01:44.627Z,11.50
2018-07-17T05:04:37.600Z,11.10
2018-07-17T05:06:31.470Z,10.40
2018-07-17T05:07:31.172Z,10.70
2018-07-17T05:09:25.627Z,10.60
2018-07-17T05:10:24.463Z,9.80
2018-07-17T05:12:17.610Z,9.90
2018-07-17T05:13:17.225Z,10.30
2018-07-17T05:15:10.709Z,9.80
2018-07-17T05:16:10.297Z,9.90
2018-07-17T05:18:05.176Z,9.00
2018-07-17T05:19:05.457Z,9.40
2018-07-17T05:21:01.714Z,8.90
2018-07-17T05:22:01.660Z,8.80
2018-07-17T05:23:54.739Z,8.50
2018-07-17T05:24:54.348Z,8.90
2018-07-17T05:26:47.881Z,8.60
2018-07-17T05:27:47.450Z,9.20
2018-07-17T05:29:40.901Z,9.10
2018-07-17T05:30:40.445Z,8.40
2018-07-17T05:32:33.982Z,8.70
2018-07-17T05:33:33.857Z,8.60
2018-07-17T05:35:27.532Z,8.50
2018-07-17T05:36:27.126Z,8.20
2018-07-17T05:38:20.587Z,8.40
2018-07-17T05:39:20.170Z,8.70
2018-07-17T05:41:13.607Z,8.50
2018-07-17T05:42:13.567Z,8.40
2018-07-17T05:44:06.769Z,8.80
2018-07-17T05:45:06.589Z,8.90
2018-07-17T05:46:59.737Z,9.40
2018-07-17T05:48:03.272Z,8.90
2018-07-17T05:50:35.351Z,9.10
2018-07-17T05:51:35.185Z,9.30
2018-07-17T05:53:29.786Z,9.60
2018-07-17T05:54:29.735Z,9.40
2018-07-17T05:56:23.371Z,9.10
2018-07-17T05:57:23.261Z,9.20
2018-07-17T05:59:16.380Z,9.20
2018-07-17T06:00:16.299Z,9.60
2018-07-17T06:02:09.468Z,9.60
2018-07-17T06:03:09.383Z,9.20
2018-07-17T06:05:03.978Z,9.80
2018-07-17T06:06:03.921Z,9.40
2018-07-17T06:07:57.008Z,10.00
2018-07-17T06:08:56.571Z,9.60
2018-07-17T06:10:51.450Z,10.40
2018-07-17T06:11:51.128Z,10.50
2018-07-17T06:13:44.517Z,9.80
2018-07-17T06:14:44.028Z,9.70
2018-07-17T06:16:37.543Z,10.10
2018-07-17T06:17:37.559Z,9.50
2018-07-17T06:19:30.682Z,9.70
2018-07-17T06:20:30.272Z,9.10
2018-07-17T06:22:23.634Z,9.10
2018-07-17T06:23:23.334Z,9.20
2018-07-17T06:25:16.763Z,9.10
2018-07-17T06:26:16.323Z,8.90
2018-07-17T06:28:09.751Z,8.80
2018-07-17T06:29:09.804Z,8.50
2018-07-17T06:31:03.352Z,8.20
2018-07-17T06:32:03.067Z,8.10
2018-07-17T06:33:56.485Z,8.20
2018-07-17T06:34:56.388Z,8.20
2018-07-17T06:36:49.597Z,7.80
2018-07-17T06:37:49.375Z,7.80
2018-07-17T06:39:44.030Z,7.80
2018-07-17T06:40:43.540Z,7.70
2018-07-17T06:42:37.114Z,7.30
2018-07-17T06:43:37.034Z,6.90
2018-07-17T06:45:30.084Z,7.60
2018-07-17T06:46:29.684Z,7.40
2018-07-17T06:48:23.593Z,7.20
2018-07-17T06:49:23.894Z,7.10
2018-07-17T06:51:16.686Z,7.00
2018-07-17T06:52:16.239Z,6.70
2018-07-17T06:54:09.748Z,6.70
2018-07-17T06:55:09.602Z,7.10
2018-07-17T06:56:10.120Z,7.30
2018-07-17T06:57:09.247Z,6.60
2018-07-17T06:58:09.510Z,7.10
2018-07-17T06:59:09.496Z,6.70
2018-07-17T07:00:09.489Z,6.10
2018-07-17T07:01:09.440Z,6.60
2018-07-17T07:02:09.381Z,6.20
2018-07-17T07:03:09.367Z,6.20
2018-07-17T07:04:09.008Z,6.70
2018-07-17T07:05:08.952Z,5.40
2018-07-17T07:06:08.951Z,5.60
2018-07-17T07:07:09.370Z,5.70
2018-07-17T07:08:09.217Z,5.50
2018-07-17T07:09:08.868Z,5.50
2018-07-17T07:10:09.244Z,5.20
2018-07-17T07:11:09.202Z,5.50
2018-07-17T07:12:09.128Z,5.10
2018-07-17T07:13:09.100Z,4.70
2018-07-17T07:14:09.095Z,5.20
2018-07-17T07:15:09.006Z,5.30
2018-07-17T07:16:09.051Z,5.20
2018-07-17T07:17:08.974Z,5.00
2018-07-17T07:18:08.982Z,4.90
2018-07-17T07:19:08.938Z,4.90
2018-07-17T07:20:08.598Z,4.70
2018-07-17T07:21:08.903Z,4.80
2018-07-17T07:22:08.898Z,4.70
2018-07-17T07:23:08.832Z,4.90
2018-07-17T07:24:09.385Z,5.00
2018-07-17T07:25:08.841Z,5.20
2018-07-17T07:26:08.815Z,4.90
2018-07-17T07:27:08.810Z,5.30
2018-07-17T07:28:08.778Z,5.40
2018-07-17T07:29:08.655Z,4.80
2018-07-17T07:30:08.712Z,4.60
2018-07-17T07:31:08.400Z,5.00
2018-07-17T07:32:08.653Z,4.80
2018-07-17T07:33:08.637Z,4.90
2018-07-17T07:34:08.576Z,4.50
2018-07-17T07:35:08.604Z,4.70
2018-07-17T07:36:08.577Z,4.40
2018-07-17T07:37:08.555Z,4.70
2018-07-17T07:38:08.118Z,4.20
2018-07-17T07:39:08.078Z,4.30
2018-07-17T07:40:08.065Z,4.10
2018-07-17T07:41:08.054Z,4.40
2018-07-17T07:42:08.019Z,4.40
2018-07-17T07:43:08.003Z,4.20
2018-07-17T07:44:07.981Z,4.50
2018-07-17T07:45:07.973Z,4.70
2018-07-17T07:46:07.941Z,4.50
2018-07-17T07:47:07.921Z,4.40
2018-07-17T07:48:07.901Z,4.50
2018-07-17T07:49:07.941Z,4.40
2018-07-17T07:50:07.870Z,4.00
2018-07-17T07:51:07.845Z,4.80
2018-07-17T07:52:07.832Z,4.30
2018-07-17T07:53:07.803Z,4.10
2018-07-17T07:54:07.790Z,4.30
2018-07-17T07:55:07.783Z,4.00
2018-07-17T07:56:07.751Z,4.00
2018-07-17T07:57:07.742Z,3.70
2018-07-17T07:58:07.714Z,4.10
2018-07-17T07:59:07.714Z,3.70
2018-07-17T08:00:07.675Z,3.70
2018-07-17T08:01:07.679Z,3.90
2018-07-17T08:02:07.645Z,3.70
2018-07-17T08:03:07.625Z,3.80
2018-07-17T08:04:07.622Z,3.70
2018-07-17T08:05:07.611Z,4.10
2018-07-17T08:06:07.567Z,3.80
2018-07-17T08:07:07.561Z,4.10
2018-07-17T08:08:07.537Z,3.80
2018-07-17T08:09:07.523Z,3.90
2018-07-17T08:10:07.493Z,3.60
2018-07-17T08:11:07.487Z,3.70
2018-07-17T08:12:07.512Z,3.70
2018-07-17T08:13:07.443Z,3.60
2018-07-17T08:14:07.422Z,3.70
2018-07-17T08:15:07.423Z,3.60
2018-07-17T08:16:07.398Z,3.70
2018-07-17T08:17:07.393Z,3.80
2018-07-17T08:18:07.363Z,3.50
2018-07-17T08:19:07.351Z,3.60
2018-07-17T08:20:07.354Z,3.20
2018-07-17T08:21:07.313Z,3.60
2018-07-17T08:22:07.297Z,3.60
2018-07-17T08:23:07.274Z,3.60
2018-07-17T08:24:07.258Z,3.70
2018-07-17T08:25:07.252Z,3.40
2018-07-17T08:26:07.225Z,3.60
2018-07-17T08:27:07.204Z,3.70
2018-07-17T08:28:07.203Z,3.50
2018-07-17T08:29:07.181Z,3.40
2018-07-17T08:30:07.159Z,3.50
2018-07-17T08:31:07.149Z,3.70
2018-07-17T08:32:07.124Z,3.40
2018-07-17T08:33:07.115Z,3.50
2018-07-17T08:34:07.093Z,3.80
2018-07-17T08:35:07.081Z,3.60
2018-07-17T08:36:07.070Z,3.30
2018-07-17T08:37:07.057Z,3.50
2018-07-17T08:38:07.030Z,3.50
2018-07-17T08:39:07.015Z,3.50
2018-07-17T08:40:06.997Z,3.70
2018-07-17T08:41:06.976Z,3.50
2018-07-17T08:42:06.976Z,3.40
2018-07-17T08:43:06.939Z,3.60
2018-07-17T08:44:06.934Z,3.10
2018-07-17T08:45:06.913Z,3.20
2018-07-17T08:46:06.895Z,3.50
2018-07-17T08:47:06.883Z,3.40
2018-07-17T08:48:06.858Z,3.40
2018-07-17T08:49:06.879Z,3.50
2018-07-17T08:50:06.830Z,3.50
2018-07-17T08:51:06.814Z,3.20
2018-07-17T08:52:06.790Z,3.10
2018-07-17T08:53:06.787Z,3.20
2018-07-17T08:54:06.783Z,3.00
2018-07-17T08:55:06.759Z,3.10
2018-07-17T08:56:06.723Z,3.00
2018-07-17T08:57:06.739Z,3.10
2018-07-17T08:58:06.694Z,3.30
2018-07-17T08:59:06.686Z,3.00
2018-07-17T09:00:06.669Z,2.90
2018-07-17T09:01:06.660Z,2.90
2018-07-17T09:02:06.645Z,3.10
2018-07-17T09:03:06.632Z,3.20
2018-07-17T09:04:06.606Z,3.30
2018-07-17T09:05:06.588Z,2.90
2018-07-17T09:06:06.576Z,3.20
2018-07-17T09:07:06.566Z,3.10
2018-07-17T09:08:06.546Z,2.90
2018-07-17T09:09:06.526Z,3.10
2018-07-17T09:10:06.506Z,3.10
2018-07-17T09:11:06.508Z,3.10
2018-07-17T09:12:06.474Z,3.00
2018-07-17T09:13:06.494Z,3.20
2018-07-17T09:14:06.437Z,3.00
2018-07-17T09:15:06.464Z,2.80
2018-07-17T09:16:06.409Z,3.00
2018-07-17T09:17:06.400Z,2.80
2018-07-17T09:18:06.413Z,3.10
2018-07-17T09:19:06.364Z,2.80
2018-07-17T09:20:06.352Z,2.80
2018-07-17T09:21:06.342Z,3.00
2018-07-17T09:22:06.324Z,3.00
2018-07-17T09:23:06.297Z,2.90
2018-07-17T09:24:06.290Z,2.70
2018-07-17T09:25:06.278Z,3.10
2018-07-17T09:26:06.262Z,3.20
2018-07-17T09:27:06.233Z,2.90
2018-07-17T09:28:06.236Z,2.80
2018-07-17T09:29:06.201Z,3.20
2018-07-17T09:30:06.188Z,3.00
2018-07-17T09:31:06.188Z,3.10
2018-07-17T09:32:06.145Z,2.90
2018-07-17T09:33:06.158Z,2.70
2018-07-17T09:34:06.106Z,2.70
2018-07-17T09:35:06.138Z,3.00
2018-07-17T09:36:06.085Z,3.10
2018-07-17T09:37:06.066Z,2.70
2018-07-17T09:38:06.045Z,2.80
2018-07-17T09:39:06.041Z,3.50
2018-07-17T09:40:06.026Z,3.00
2018-07-17T09:41:05.990Z,2.80
2018-07-17T09:42:05.979Z,2.90
2018-07-17T09:43:05.964Z,3.10
2018-07-17T09:44:05.951Z,2.80
2018-07-17T09:45:05.923Z,2.90
2018-07-17T09:46:05.899Z,2.90
2018-07-17T09:47:05.906Z,2.80
2018-07-17T09:48:05.887Z,2.80
2018-07-17T09:49:05.854Z,2.80
2018-07-17T09:50:05.844Z,2.80
2018-07-17T09:51:05.824Z,3.10
2018-07-17T09:52:05.847Z,3.10
2018-07-17T09:53:05.785Z,2.80
2018-07-17T09:54:05.765Z,4.00
2018-07-17T09:55:05.755Z,3.10
2018-07-17T09:56:05.727Z,2.90
2018-07-17T09:57:05.722Z,3.10
2018-07-17T09:58:05.693Z,3.10
2018-07-17T09:59:05.669Z,3.00
2018-07-17T10:00:05.661Z,2.80
2018-07-17T10:01:05.633Z,3.00
2018-07-17T10:02:05.616Z,3.00
2018-07-17T10:03:05.634Z,3.30
2018-07-17T10:04:05.596Z,3.00
2018-07-17T10:05:05.569Z,3.20
2018-07-17T10:06:05.544Z,3.20
2018-07-17T10:07:05.540Z,3.10
2018-07-17T10:08:05.512Z,3.40
2018-07-17T10:09:05.496Z,3.00
2018-07-17T10:10:05.466Z,3.30
2018-07-17T10:11:05.455Z,3.10
2018-07-17T10:12:05.433Z,3.30
2018-07-17T10:13:05.415Z,3.10
2018-07-17T10:14:05.400Z,3.10
2018-07-17T10:15:05.370Z,3.10
2018-07-17T10:16:05.345Z,3.00
2018-07-17T10:17:05.330Z,3.00
2018-07-17T10:18:05.321Z,3.20
2018-07-17T10:19:05.336Z,3.10
2018-07-17T10:20:05.377Z,3.00
2018-07-17T10:21:05.255Z,3.10
2018-07-17T10:22:05.245Z,2.80
2018-07-17T10:23:05.227Z,3.00
2018-07-17T10:24:05.192Z,3.10
2018-07-17T10:25:05.174Z,3.00
2018-07-17T10:26:05.138Z,2.80
2018-07-17T10:27:05.148Z,3.00
2018-07-17T10:28:05.114Z,2.90
2018-07-17T10:29:05.092Z,2.60
2018-07-17T10:30:05.076Z,3.00
2018-07-17T10:31:05.046Z,2.70
2018-07-17T10:32:05.104Z,2.80
2018-07-17T10:33:05.026Z,2.80
2018-07-17T10:34:04.990Z,3.00
2018-07-17T10:35:04.983Z,3.00
2018-07-17T10:36:04.976Z,2.80
2018-07-17T10:37:04.936Z,2.80
2018-07-17T10:38:04.917Z,2.70
2018-07-17T10:39:04.919Z,2.80
2018-07-17T10:40:04.890Z,2.80
2018-07-17T10:41:04.924Z,2.90
2018-07-17T10:42:04.867Z,2.80
2018-07-17T10:43:04.829Z,2.70
2018-07-17T10:44:04.843Z,2.90
2018-07-17T10:45:04.792Z,2.90
2018-07-17T10:46:04.780Z,2.90
2018-07-17T10:47:04.769Z,3.30
2018-07-17T10:48:04.737Z,2.90
2018-07-17T10:49:04.724Z,2.90
2018-07-17T10:50:04.714Z,2.90
2018-07-17T10:51:04.675Z,2.70
2018-07-17T10:52:04.657Z,2.90
2018-07-17T10:53:04.628Z,2.70
2018-07-17T10:54:04.632Z,2.90
2018-07-17T10:55:04.647Z,2.90
2018-07-17T10:56:04.595Z,2.70
2018-07-17T10:57:04.603Z,2.90
2018-07-17T10:58:04.580Z,2.90
2018-07-17T10:59:04.539Z,3.00
2018-07-17T11:00:04.552Z,2.70
2018-07-17T11:01:04.566Z,2.90
2018-07-17T11:02:04.483Z,2.90
2018-07-17T11:03:04.481Z,2.50
2018-07-17T11:04:04.444Z,2.90
2018-07-17T11:05:04.423Z,2.80
2018-07-17T11:06:04.406Z,2.70
2018-07-17T11:07:04.385Z,2.70
2018-07-17T11:08:04.404Z,2.50
2018-07-17T11:09:04.416Z,2.80
2018-07-17T11:10:04.351Z,3.10
2018-07-17T11:11:04.382Z,2.80
2018-07-17T11:12:04.319Z,2.60
2018-07-17T11:13:04.284Z,2.60
2018-07-17T11:14:04.273Z,3.50
2018-07-17T11:15:04.238Z,2.90
2018-07-17T11:16:04.238Z,3.10
2018-07-17T11:17:04.214Z,2.80
2018-07-17T11:18:04.218Z,2.80
2018-07-17T11:19:04.185Z,3.00
2018-07-17T11:20:04.140Z,3.10
2018-07-17T11:21:04.145Z,2.90
2018-07-17T11:22:04.121Z,2.90
2018-07-17T11:23:04.101Z,2.80
2018-07-17T11:24:04.084Z,2.80
2018-07-17T11:25:04.071Z,3.10
2018-07-17T11:26:04.061Z,3.00
2018-07-17T11:27:04.056Z,2.80
2018-07-17T11:28:04.026Z,2.90
2018-07-17T11:29:03.987Z,3.10
2018-07-17T11:30:03.972Z,2.70
2018-07-17T11:31:04.010Z,3.00
2018-07-17T11:32:04.040Z,3.10
2018-07-17T11:33:03.916Z,3.00
2018-07-17T11:34:03.907Z,3.00
2018-07-17T11:35:03.874Z,3.10
2018-07-17T11:36:03.876Z,3.50
2018-07-17T11:37:03.827Z,3.00
2018-07-17T11:38:03.822Z,3.00
2018-07-17T11:39:03.794Z,3.10
2018-07-17T11:40:03.791Z,3.00
2018-07-17T11:41:03.768Z,3.10
2018-07-17T11:42:03.735Z,3.00
2018-07-17T11:43:03.738Z,3.30
2018-07-17T11:44:03.696Z,3.10
2018-07-17T11:45:03.669Z,3.20
2018-07-17T11:46:03.671Z,3.30
2018-07-17T11:47:03.680Z,3.10
2018-07-17T11:48:03.627Z,2.80
2018-07-17T11:49:03.607Z,3.30
2018-07-17T11:50:03.595Z,2.90
2018-07-17T11:51:03.554Z,2.80
2018-07-17T11:52:03.564Z,3.00
2018-07-17T11:53:03.542Z,3.20
2018-07-17T11:54:03.501Z,3.10
2018-07-17T11:55:03.482Z,3.20
2018-07-17T11:56:03.463Z,2.70
2018-07-17T11:57:03.431Z,2.80
2018-07-17T11:58:03.415Z,3.00
2018-07-17T11:59:03.400Z,2.80
2018-07-17T12:00:03.463Z,2.80
2018-07-17T12:01:04.145Z,3.20
2018-07-17T12:02:03.345Z,3.20
2018-07-17T12:03:03.319Z,3.00
2018-07-17T12:04:03.305Z,2.70
2018-07-17T12:05:03.285Z,2.90
2018-07-17T12:06:03.266Z,2.90
2018-07-17T12:07:03.228Z,2.80
2018-07-17T12:08:03.214Z,3.00
2018-07-17T12:09:03.190Z,3.00
2018-07-17T12:10:03.184Z,3.00
2018-07-17T12:11:03.159Z,3.30
2018-07-17T12:12:03.145Z,2.90
2018-07-17T12:13:03.211Z,2.90
2018-07-17T12:14:03.099Z,3.00
2018-07-17T12:15:03.177Z,2.80
2018-07-17T12:16:03.100Z,3.20
2018-07-17T12:17:03.052Z,3.20
2018-07-17T12:18:03.014Z,2.90
2018-07-17T12:19:03.003Z,2.80
2018-07-17T12:20:03.138Z,3.00
2018-07-17T12:21:02.963Z,2.90
2018-07-17T12:22:02.971Z,3.30
2018-07-17T12:23:02.933Z,3.00
2018-07-17T12:24:02.922Z,2.90
2018-07-17T12:25:02.901Z,2.80
2018-07-17T12:26:02.896Z,2.80
2018-07-17T12:27:02.861Z,3.10
2018-07-17T12:28:02.863Z,3.00
2018-07-17T12:29:02.818Z,3.10
2018-07-17T12:30:02.787Z,2.70
2018-07-17T12:31:02.797Z,3.00
2018-07-17T12:32:02.761Z,3.00
2018-07-17T12:33:02.752Z,2.80
2018-07-17T12:34:02.715Z,3.00
2018-07-17T12:35:02.728Z,3.10
2018-07-17T12:36:02.686Z,3.10
2018-07-17T12:37:02.667Z,3.00
2018-07-17T12:38:02.642Z,2.90
2018-07-17T12:39:02.615Z,2.90
2018-07-17T12:40:02.636Z,3.00
2018-07-17T12:41:02.589Z,3.00
2018-07-17T12:42:02.570Z,2.90
2018-07-17T12:43:02.580Z,2.70
2018-07-17T12:44:02.532Z,3.40
2018-07-17T12:45:02.506Z,3.00
2018-07-17T12:46:02.485Z,3.10
2018-07-17T12:47:02.451Z,3.00
2018-07-17T12:48:02.458Z,3.00
2018-07-17T12:49:02.464Z,3.00
2018-07-17T12:50:02.458Z,3.00
2018-07-17T12:51:02.401Z,3.00
2018-07-17T12:52:02.374Z,3.20
2018-07-17T12:53:02.352Z,2.90
2018-07-17T12:54:02.352Z,3.00
2018-07-17T12:55:02.324Z,3.10
2018-07-17T12:56:02.304Z,2.60
2018-07-17T12:57:02.283Z,2.80
2018-07-17T12:58:02.262Z,3.00
2018-07-17T12:59:02.283Z,2.70
2018-07-17T13:00:02.215Z,2.80
2018-07-17T13:01:02.233Z,2.50
2018-07-17T13:02:02.166Z,2.70
2018-07-17T13:03:02.151Z,3.10
2018-07-17T13:04:02.147Z,3.10
2018-07-17T13:05:02.125Z,3.20
2018-07-17T13:06:02.105Z,2.80
2018-07-17T13:07:02.106Z,2.70
2018-07-17T13:08:02.072Z,3.10
2018-07-17T13:09:02.059Z,2.90
2018-07-17T13:10:02.021Z,2.90
2018-07-17T13:11:02.001Z,2.70
2018-07-17T13:12:01.981Z,2.70
2018-07-17T13:13:01.976Z,2.60
2018-07-17T13:14:01.958Z,3.00
2018-07-17T13:15:01.939Z,2.90
2018-07-17T13:16:01.915Z,2.70
2018-07-17T13:17:01.906Z,2.80
2018-07-17T13:18:01.870Z,2.70
2018-07-17T13:19:01.886Z,2.80
2018-07-17T13:20:01.852Z,2.90
2018-07-17T13:21:01.826Z,2.90
2018-07-17T13:22:01.791Z,2.90
2018-07-17T13:23:01.805Z,2.80
2018-07-17T13:24:01.749Z,2.80
2018-07-17T13:25:01.733Z,2.80
2018-07-17T13:26:01.719Z,2.80
2018-07-17T13:27:01.697Z,3.00
2018-07-17T13:28:01.692Z,3.10
2018-07-17T13:29:01.678Z,3.30
2018-07-17T13:30:01.636Z,2.90
2018-07-17T13:31:01.618Z,3.00
2018-07-17T13:32:01.605Z,3.10
2018-07-17T13:33:01.590Z,3.20
2018-07-17T13:34:01.583Z,3.20
2018-07-17T13:35:01.535Z,3.00
2018-07-17T13:36:01.531Z,3.10
2018-07-17T13:37:01.492Z,3.10
2018-07-17T13:38:01.486Z,3.40
2018-07-17T13:39:01.472Z,3.30
2018-07-17T13:40:01.443Z,3.10
2018-07-17T13:41:01.412Z,3.10
2018-07-17T13:42:01.402Z,3.00
2018-07-17T13:43:01.378Z,3.50
2018-07-17T13:44:01.397Z,3.30
2018-07-17T13:45:01.324Z,3.40
2018-07-17T13:46:01.301Z,3.40
2018-07-17T13:47:01.449Z,3.40
2018-07-17T13:48:01.359Z,3.20
2018-07-17T13:49:01.253Z,3.00
2018-07-17T13:50:01.273Z,3.30
2018-07-17T13:51:01.207Z,2.90
2018-07-17T13:52:01.196Z,3.00
2018-07-17T13:53:01.247Z,3.00
2018-07-17T13:54:01.144Z,3.10
2018-07-17T13:55:01.108Z,3.20
2018-07-17T13:56:01.088Z,2.90
2018-07-17T13:57:01.070Z,2.90
2018-07-17T13:58:01.054Z,3.20
2018-07-17T13:59:01.043Z,3.20
2018-07-17T14:00:01.102Z,2.90
2018-07-17T14:01:00.994Z,2.70
2018-07-17T14:02:00.992Z,2.90
2018-07-17T14:03:00.947Z,2.70
2018-07-17T14:04:01.987Z,2.90
2018-07-17T14:05:00.895Z,2.80
2018-07-17T14:06:00.874Z,2.60
2018-07-17T14:07:00.951Z,2.90
2018-07-17T14:08:00.857Z,2.90
2018-07-17T14:09:00.822Z,2.60
2018-07-17T14:10:00.800Z,2.90
2018-07-17T14:11:00.819Z,2.80
2018-07-17T14:12:00.809Z,2.70
2018-07-17T14:13:00.758Z,2.70
2018-07-17T14:14:00.704Z,2.80
2018-07-17T14:15:00.691Z,2.80
2018-07-17T14:16:00.653Z,2.90
2018-07-17T14:17:00.631Z,2.90
2018-07-17T14:18:00.603Z,3.00
2018-07-17T14:19:00.600Z,3.20
2018-07-17T14:20:00.562Z,3.00
2018-07-17T14:21:00.543Z,3.10
2018-07-17T14:22:00.534Z,2.80
2018-07-17T14:23:00.511Z,2.90
2018-07-17T14:24:00.465Z,2.70
2018-07-17T14:25:00.475Z,2.90
2018-07-17T14:26:00.443Z,2.90
2018-07-17T14:27:00.436Z,3.00
2018-07-17T14:28:00.397Z,2.90
2018-07-17T14:29:00.362Z,3.10
2018-07-17T14:30:00.358Z,3.10
2018-07-17T14:31:00.313Z,2.90
2018-07-17T14:32:00.371Z,3.20
2018-07-17T14:33:00.397Z,3.20
2018-07-17T14:34:00.361Z,3.00
2018-07-17T14:35:00.320Z,2.90
2018-07-17T14:36:00.225Z,3.10
2018-07-17T14:37:00.219Z,3.10
2018-07-17T14:38:00.193Z,2.80
2018-07-17T14:39:00.175Z,3.10
2018-07-17T14:40:00.153Z,3.10
2018-07-17T14:41:00.165Z,2.60
2018-07-17T14:42:00.110Z,2.80
2018-07-17T14:43:00.148Z,3.00
2018-07-17T14:44:00.079Z,2.90
2018-07-17T14:45:00.057Z,2.80
2018-07-17T14:46:00.031Z,2.60
2018-07-17T14:47:00.014Z,3.00
2018-07-17T14:47:59.989Z,2.70
2018-07-17T14:48:59.981Z,2.60
2018-07-17T14:49:59.931Z,2.60
2018-07-17T14:50:59.916Z,2.70
2018-07-17T14:51:59.936Z,3.10
2018-07-17T14:53:00.008Z,2.90
2018-07-17T14:53:59.853Z,3.00
2018-07-17T14:54:59.836Z,2.70
2018-07-17T14:55:59.835Z,2.70
2018-07-17T14:56:59.820Z,3.00
2018-07-17T14:58:00.686Z,2.80
2018-07-17T14:58:59.762Z,2.90
2018-07-17T14:59:59.744Z,2.70
2018-07-17T15:00:59.710Z,2.90